sensor_id;sensor_type;location;lat;lon;timestamp;pressure;altitude;pressure_sealevel;temperature;humidity
10668;BME280;5382;42.136;24.796;2023-02-12T00:00:19;100982.88;;;-0.14;95.53
10668;BME280;5382;42.136;24.796;2023-02-12T00:02:46;100956.91;;;-0.19;92.45
10668;BME280;5382;42.136;24.796;2023-02-12T00:05:12;100980.31;;;-0.17;95.36
10668;BME280;5382;42.136;24.796;2023-02-12T00:07:42;100985.47;;;-0.14;97.60
10668;BME280;5382;42.136;24.796;2023-02-12T00:10:09;100951.13;;;-0.47;97.71
10668;BME280;5382;42.136;24.796;2023-02-12T00:12:36;100975.28;;;-0.39;100.00
10668;BME280;5382;42.136;24.796;2023-02-12T00:15:03;100979.72;;;-0.46;97.82
10668;BME280;5382;42.136;24.796;2023-02-12T00:17:30;100966.66;;;-0.38;95.20
10668;BME280;5382;42.136;24.796;2023-02-12T00:19:57;100961.41;;;-0.36;100.00
10668;BME280;5382;42.136;24.796;2023-02-12T00:22:23;100969.38;;;-0.55;100.00
10668;BME280;5382;42.136;24.796;2023-02-12T00:24:52;100974.78;;;-0.78;100.00
10668;BME280;5382;42.136;24.796;2023-02-12T00:27:18;100970.75;;;-1.16;100.00
10668;BME280;5382;42.136;24.796;2023-02-12T00:29:45;100967.22;;;-1.12;100.00
10668;BME280;5382;42.136;24.796;2023-02-12T00:32:12;100962.84;;;-1.03;100.00
10668;BME280;5382;42.136;24.796;2023-02-12T00:34:43;100953.38;;;-1.09;100.00
10668;BME280;5382;42.136;24.796;2023-02-12T00:37:10;100947.28;;;-1.06;100.00
10668;BME280;5382;42.136;24.796;2023-02-12T00:39:37;100930.75;;;-0.96;100.00
10668;BME280;5382;42.136;24.796;2023-02-12T00:42:05;100894.63;;;-1.27;100.00
10668;BME280;5382;42.136;24.796;2023-02-12T00:44:32;100935.00;;;-0.84;100.00
10668;BME280;5382;42.136;24.796;2023-02-12T00:46:59;100929.72;;;-0.75;100.00
10668;BME280;5382;42.136;24.796;2023-02-12T00:49:27;100917.53;;;-0.67;100.00
10668;BME280;5382;42.136;24.796;2023-02-12T00:51:54;100920.09;;;-0.66;100.00
10668;BME280;5382;42.136;24.796;2023-02-12T00:54:21;100906.09;;;-0.52;100.00
10668;BME280;5382;42.136;24.796;2023-02-12T00:56:48;100907.03;;;-0.58;100.00
10668;BME280;5382;42.136;24.796;2023-02-12T00:59:16;100908.69;;;-0.52;100.00
10668;BME280;5382;42.136;24.796;2023-02-12T01:01:43;100905.16;;;-0.43;100.00
10668;BME280;5382;42.136;24.796;2023-02-12T01:04:09;100892.97;;;-0.40;100.00
10668;BME280;5382;42.136;24.796;2023-02-12T01:06:37;100875.69;;;-0.42;100.00
10668;BME280;5382;42.136;24.796;2023-02-12T01:09:04;100872.81;;;-0.21;98.14
10668;BME280;5382;42.136;24.796;2023-02-12T01:11:30;100839.59;;;0.01;82.15
10668;BME280;5382;42.136;24.796;2023-02-12T01:13:57;100888.88;;;0.74;77.55
10668;BME280;5382;42.136;24.796;2023-02-12T01:16:26;100866.81;;;0.96;72.44
10668;BME280;5382;42.136;24.796;2023-02-12T01:18:54;100873.00;;;1.39;67.19
10668;BME280;5382;42.136;24.796;2023-02-12T01:21:23;100882.03;;;1.69;62.60
10668;BME280;5382;42.136;24.796;2023-02-12T01:23:50;100882.31;;;1.97;59.95
10668;BME280;5382;42.136;24.796;2023-02-12T01:26:18;100891.47;;;2.18;57.40
10668;BME280;5382;42.136;24.796;2023-02-12T01:28:49;100865.91;;;2.32;55.24
10668;BME280;5382;42.136;24.796;2023-02-12T01:31:18;100872.53;;;2.47;53.14
10668;BME280;5382;42.136;24.796;2023-02-12T01:33:48;100835.19;;;2.44;52.14
10668;BME280;5382;42.136;24.796;2023-02-12T01:36:15;100824.56;;;2.51;51.17
10668;BME280;5382;42.136;24.796;2023-02-12T01:38:42;100846.53;;;2.78;50.75
10668;BME280;5382;42.136;24.796;2023-02-12T01:41:11;100859.47;;;2.84;50.50
10668;BME280;5382;42.136;24.796;2023-02-12T01:43:39;100864.63;;;2.88;49.99
10668;BME280;5382;42.136;24.796;2023-02-12T01:46:10;100859.41;;;2.86;49.88
10668;BME280;5382;42.136;24.796;2023-02-12T01:48:39;100849.94;;;2.82;49.70
10668;BME280;5382;42.136;24.796;2023-02-12T01:51:11;100848.91;;;2.89;50.00
10668;BME280;5382;42.136;24.796;2023-02-12T01:53:43;100800.38;;;2.79;49.88
10668;BME280;5382;42.136;24.796;2023-02-12T01:56:12;100824.16;;;3.02;49.27
10668;BME280;5382;42.136;24.796;2023-02-12T01:58:41;100855.72;;;3.29;48.40
10668;BME280;5382;42.136;24.796;2023-02-12T02:01:12;100843.19;;;3.40;47.97
10668;BME280;5382;42.136;24.796;2023-02-12T02:03:41;100852.56;;;3.49;47.29
10668;BME280;5382;42.136;24.796;2023-02-12T02:06:15;100847.16;;;3.55;47.28
10668;BME280;5382;42.136;24.796;2023-02-12T02:08:42;100840.06;;;3.59;46.82
10668;BME280;5382;42.136;24.796;2023-02-12T02:11:10;100847.88;;;3.60;46.47
10668;BME280;5382;42.136;24.796;2023-02-12T02:13:55;100863.56;;;3.62;46.24
10668;BME280;5382;42.136;24.796;2023-02-12T02:16:42;100825.66;;;3.44;45.71
10668;BME280;5382;42.136;24.796;2023-02-12T02:19:20;100843.47;;;3.62;45.54
10668;BME280;5382;42.136;24.796;2023-02-12T02:22:16;100854.91;;;3.58;45.30
10668;BME280;5382;42.136;24.796;2023-02-12T02:25:01;100854.09;;;3.56;44.60
10668;BME280;5382;42.136;24.796;2023-02-12T02:27:39;100859.47;;;3.52;43.74
10668;BME280;5382;42.136;24.796;2023-02-12T02:30:26;100859.78;;;3.39;43.81
10668;BME280;5382;42.136;24.796;2023-02-12T02:33:07;100867.53;;;3.44;43.56
10668;BME280;5382;42.136;24.796;2023-02-12T02:35:40;100851.91;;;3.41;43.55
10668;BME280;5382;42.136;24.796;2023-02-12T02:38:19;100864.09;;;3.42;43.80
10668;BME280;5382;42.136;24.796;2023-02-12T02:40:51;100846.19;;;3.26;44.04
10668;BME280;5382;42.136;24.796;2023-02-12T02:43:22;100865.00;;;3.41;44.59
10668;BME280;5382;42.136;24.796;2023-02-12T02:45:56;100865.00;;;3.41;44.45
10668;BME280;5382;42.136;24.796;2023-02-12T02:48:29;100861.38;;;3.45;44.49
10668;BME280;5382;42.136;24.796;2023-02-12T02:51:01;100873.63;;;3.43;44.73
10668;BME280;5382;42.136;24.796;2023-02-12T02:53:31;100865.06;;;3.38;45.04
10668;BME280;5382;42.136;24.796;2023-02-12T02:56:02;100865.75;;;3.46;45.40
10668;BME280;5382;42.136;24.796;2023-02-12T02:58:35;100861.50;;;3.40;45.88
10668;BME280;5382;42.136;24.796;2023-02-12T03:01:08;100858.09;;;3.38;46.42
10668;BME280;5382;42.136;24.796;2023-02-12T03:03:39;100853.66;;;3.40;47.56
10668;BME280;5382;42.136;24.796;2023-02-12T03:06:12;100864.06;;;3.43;48.39
10668;BME280;5382;42.136;24.796;2023-02-12T03:08:48;100863.97;;;3.46;48.79
10668;BME280;5382;42.136;24.796;2023-02-12T03:11:21;100856.88;;;3.50;48.82
10668;BME280;5382;42.136;24.796;2023-02-12T03:13:54;100857.75;;;3.50;48.97
10668;BME280;5382;42.136;24.796;2023-02-12T03:16:26;100852.34;;;3.57;48.46
10668;BME280;5382;42.136;24.796;2023-02-12T03:18:58;100839.03;;;3.33;48.32
10668;BME280;5382;42.136;24.796;2023-02-12T03:21:31;100854.19;;;3.53;48.22
10668;BME280;5382;42.136;24.796;2023-02-12T03:24:01;100845.81;;;3.40;47.87
10668;BME280;5382;42.136;24.796;2023-02-12T03:26:39;100870.72;;;3.54;48.01
10668;BME280;5382;42.136;24.796;2023-02-12T03:29:09;100855.09;;;3.52;48.35
10668;BME280;5382;42.136;24.796;2023-02-12T03:31:45;100849.88;;;3.50;48.05
10668;BME280;5382;42.136;24.796;2023-02-12T03:34:24;100825.16;;;3.31;48.43
10668;BME280;5382;42.136;24.796;2023-02-12T03:36:58;100848.06;;;3.54;47.94
10668;BME280;5382;42.136;24.796;2023-02-12T03:39:32;100845.56;;;3.49;47.79
10668;BME280;5382;42.136;24.796;2023-02-12T03:42:04;100847.16;;;3.55;47.27
10668;BME280;5382;42.136;24.796;2023-02-12T03:44:46;100810.91;;;3.41;46.89
10668;BME280;5382;42.136;24.796;2023-02-12T03:47:22;100805.78;;;3.38;46.63
10668;BME280;5382;42.136;24.796;2023-02-12T03:49:57;100850.47;;;3.62;47.10
10668;BME280;5382;42.136;24.796;2023-02-12T03:52:26;100842.47;;;3.66;47.10
10668;BME280;5382;42.136;24.796;2023-02-12T03:54:53;100840.75;;;3.65;47.35
10668;BME280;5382;42.136;24.796;2023-02-12T03:57:23;100827.69;;;3.65;47.33
10668;BME280;5382;42.136;24.796;2023-02-12T03:59:55;100842.31;;;3.72;47.18
10668;BME280;5382;42.136;24.796;2023-02-12T04:02:24;100829.75;;;3.54;46.93
10668;BME280;5382;42.136;24.796;2023-02-12T04:04:51;100856.13;;;3.78;47.07
10668;BME280;5382;42.136;24.796;2023-02-12T04:07:18;100864.72;;;3.83;47.28
10668;BME280;5382;42.136;24.796;2023-02-12T04:09:45;100847.66;;;3.68;47.58
10668;BME280;5382;42.136;24.796;2023-02-12T04:12:20;100853.44;;;3.79;47.91
10668;BME280;5382;42.136;24.796;2023-02-12T04:14:54;100835.34;;;3.71;48.42
10668;BME280;5382;42.136;24.796;2023-02-12T04:20:06;100836.28;;;3.69;48.69
10668;BME280;5382;42.136;24.796;2023-02-12T04:22:44;100849.75;;;3.86;48.63
10668;BME280;5382;42.136;24.796;2023-02-12T04:25:21;100846.16;;;3.90;48.43
10668;BME280;5382;42.136;24.796;2023-02-12T04:27:56;100869.94;;;3.83;47.71
10668;BME280;5382;42.136;24.796;2023-02-12T04:30:30;100855.59;;;3.96;47.25
10668;BME280;5382;42.136;24.796;2023-02-12T04:33:03;100862.31;;;4.05;46.86
10668;BME280;5382;42.136;24.796;2023-02-12T04:35:34;100858.00;;;4.04;46.39
10668;BME280;5382;42.136;24.796;2023-02-12T04:38:07;100858.84;;;4.04;46.22
10668;BME280;5382;42.136;24.796;2023-02-12T04:40:37;100869.06;;;4.13;46.20
10668;BME280;5382;42.136;24.796;2023-02-12T04:43:06;100856.19;;;4.06;46.01
10668;BME280;5382;42.136;24.796;2023-02-12T04:45:34;100861.00;;;4.20;45.54
10668;BME280;5382;42.136;24.796;2023-02-12T04:48:03;100873.84;;;4.29;45.00
10668;BME280;5382;42.136;24.796;2023-02-12T04:50:37;100860.28;;;4.14;44.59
10668;BME280;5382;42.136;24.796;2023-02-12T04:53:04;100881.69;;;4.29;44.70
10668;BME280;5382;42.136;24.796;2023-02-12T04:55:31;100883.41;;;4.30;44.75
10668;BME280;5382;42.136;24.796;2023-02-12T04:57:57;100886.13;;;4.27;44.88
10668;BME280;5382;42.136;24.796;2023-02-12T05:00:24;100876.63;;;4.23;45.27
10668;BME280;5382;42.136;24.796;2023-02-12T05:02:51;100875.81;;;4.21;45.78
10668;BME280;5382;42.136;24.796;2023-02-12T05:05:20;100824.53;;;3.84;45.97
10668;BME280;5382;42.136;24.796;2023-02-12T05:07:46;100881.03;;;4.21;46.17
10668;BME280;5382;42.136;24.796;2023-02-12T05:10:13;100881.16;;;4.18;46.45
10668;BME280;5382;42.136;24.796;2023-02-12T05:12:40;100874.97;;;4.20;45.75
10668;BME280;5382;42.136;24.796;2023-02-12T05:15:08;100866.69;;;4.04;46.01
10668;BME280;5382;42.136;24.796;2023-02-12T05:17:35;100888.13;;;4.19;46.18
10668;BME280;5382;42.136;24.796;2023-02-12T05:20:02;100893.34;;;4.19;46.69
10668;BME280;5382;42.136;24.796;2023-02-12T05:22:30;100885.56;;;4.15;46.47
10668;BME280;5382;42.136;24.796;2023-02-12T05:24:57;100901.97;;;4.22;46.77
10668;BME280;5382;42.136;24.796;2023-02-12T05:27:24;100908.88;;;4.25;46.89
10668;BME280;5382;42.136;24.796;2023-02-12T05:29:51;100903.84;;;4.19;47.13
10668;BME280;5382;42.136;24.796;2023-02-12T05:32:18;100896.91;;;4.16;47.58
10668;BME280;5382;42.136;24.796;2023-02-12T05:34:44;100902.91;;;4.20;48.04
10668;BME280;5382;42.136;24.796;2023-02-12T05:37:11;100916.22;;;4.13;48.79
10668;BME280;5382;42.136;24.796;2023-02-12T05:39:39;100917.94;;;4.13;49.29
10668;BME280;5382;42.136;24.796;2023-02-12T05:42:06;100903.13;;;4.12;49.58
10668;BME280;5382;42.136;24.796;2023-02-12T05:44:33;100930.16;;;4.14;49.44
10668;BME280;5382;42.136;24.796;2023-02-12T05:47:00;100924.69;;;4.22;49.57
10668;BME280;5382;42.136;24.796;2023-02-12T05:49:27;100926.31;;;4.26;49.81
10668;BME280;5382;42.136;24.796;2023-02-12T05:51:53;100931.50;;;4.27;49.91
10668;BME280;5382;42.136;24.796;2023-02-12T05:54:20;100933.09;;;4.33;49.94
10668;BME280;5382;42.136;24.796;2023-02-12T05:56:48;100909.72;;;4.25;49.16
10668;BME280;5382;42.136;24.796;2023-02-12T05:59:17;100930.25;;;4.41;49.08
10668;BME280;5382;42.136;24.796;2023-02-12T06:01:46;100918.38;;;4.29;48.93
10668;BME280;5382;42.136;24.796;2023-02-12T06:04:14;100932.75;;;4.44;48.84
10668;BME280;5382;42.136;24.796;2023-02-12T06:06:42;100934.88;;;4.61;48.73
10668;BME280;5382;42.136;24.796;2023-02-12T06:09:10;100936.31;;;4.71;48.35
10668;BME280;5382;42.136;24.796;2023-02-12T06:11:37;100923.44;;;4.63;48.00
10668;BME280;5382;42.136;24.796;2023-02-12T06:14:07;100930.78;;;4.80;47.74
10668;BME280;5382;42.136;24.796;2023-02-12T06:16:34;100928.16;;;4.80;48.04
10668;BME280;5382;42.136;24.796;2023-02-12T06:19:03;100923.22;;;4.71;48.27
10668;BME280;5382;42.136;24.796;2023-02-12T06:21:30;100931.31;;;4.91;48.35
10668;BME280;5382;42.136;24.796;2023-02-12T06:23:58;100929.59;;;4.90;48.19
10668;BME280;5382;42.136;24.796;2023-02-12T06:26:25;100920.94;;;4.88;48.50
10668;BME280;5382;42.136;24.796;2023-02-12T06:28:53;100902.59;;;4.87;48.50
10668;BME280;5382;42.136;24.796;2023-02-12T06:31:22;100932.50;;;5.09;48.42
10668;BME280;5382;42.136;24.796;2023-02-12T06:33:50;100933.19;;;5.14;48.52
10668;BME280;5382;42.136;24.796;2023-02-12T06:36:17;100943.56;;;5.19;48.85
10668;BME280;5382;42.136;24.796;2023-02-12T06:38:45;100907.25;;;5.05;48.94
10668;BME280;5382;42.136;24.796;2023-02-12T06:41:12;100878.97;;;4.88;48.99
10668;BME280;5382;42.136;24.796;2023-02-12T06:43:39;100934.41;;;5.31;48.90
10668;BME280;5382;42.136;24.796;2023-02-12T06:46:06;100932.50;;;5.34;49.12
10668;BME280;5382;42.136;24.796;2023-02-12T06:48:35;100943.69;;;5.41;48.98
10668;BME280;5382;42.136;24.796;2023-02-12T06:51:06;100940.09;;;5.43;49.19
10668;BME280;5382;42.136;24.796;2023-02-12T06:53:33;100961.53;;;5.56;49.07
10668;BME280;5382;42.136;24.796;2023-02-12T06:56:01;100943.97;;;5.58;50.10
10668;BME280;5382;42.136;24.796;2023-02-12T06:58:27;100961.75;;;5.75;49.30
10668;BME280;5382;42.136;24.796;2023-02-12T07:00:54;100926.41;;;5.60;51.00
10668;BME280;5382;42.136;24.796;2023-02-12T07:03:21;100969.44;;;5.81;51.52
10668;BME280;5382;42.136;24.796;2023-02-12T07:05:49;100905.00;;;5.71;49.66
10668;BME280;5382;42.136;24.796;2023-02-12T07:08:16;100790.09;;;4.79;49.50
10668;BME280;5382;42.136;24.796;2023-02-12T07:10:47;100923.75;;;5.85;49.12
10668;BME280;5382;42.136;24.796;2023-02-12T07:13:15;100966.66;;;6.11;49.47
10668;BME280;5382;42.136;24.796;2023-02-12T07:15:42;100920.50;;;5.79;51.91
10668;BME280;5382;42.136;24.796;2023-02-12T07:18:09;100944.19;;;5.77;52.16
10668;BME280;5382;42.136;24.796;2023-02-12T07:20:35;100926.56;;;5.81;52.65
10668;BME280;5382;42.136;24.796;2023-02-12T07:23:03;100941.84;;;5.95;53.01
10668;BME280;5382;42.136;24.796;2023-02-12T07:25:30;100913.53;;;5.53;53.77
10668;BME280;5382;42.136;24.796;2023-02-12T07:27:57;100927.41;;;5.81;53.87
10668;BME280;5382;42.136;24.796;2023-02-12T07:30:24;100950.59;;;5.95;54.33
10668;BME280;5382;42.136;24.796;2023-02-12T07:32:51;100941.00;;;5.94;55.10
10668;BME280;5382;42.136;24.796;2023-02-12T07:35:18;100949.03;;;6.15;56.53
10668;BME280;5382;42.136;24.796;2023-02-12T07:37:44;100957.50;;;6.21;57.56
10668;BME280;5382;42.136;24.796;2023-02-12T07:40:13;100959.75;;;6.32;65.25
10668;BME280;5382;42.136;24.796;2023-02-12T07:42:40;100962.50;;;6.29;57.01
10668;BME280;5382;42.136;24.796;2023-02-12T07:45:07;100966.94;;;6.27;62.75
10668;BME280;5382;42.136;24.796;2023-02-12T07:47:35;100968.31;;;6.37;57.28
10668;BME280;5382;42.136;24.796;2023-02-12T07:50:04;100965.41;;;6.45;55.34
10668;BME280;5382;42.136;24.796;2023-02-12T07:52:31;100892.19;;;6.12;54.58
10668;BME280;5382;42.136;24.796;2023-02-12T07:54:58;100966.56;;;6.61;55.94
10668;BME280;5382;42.136;24.796;2023-02-12T07:57:26;100981.88;;;6.50;54.58
10668;BME280;5382;42.136;24.796;2023-02-12T07:59:53;100994.50;;;6.40;55.62
10668;BME280;5382;42.136;24.796;2023-02-12T08:02:20;100971.81;;;6.38;56.05
10668;BME280;5382;42.136;24.796;2023-02-12T08:04:53;100966.44;;;6.17;58.85
10668;BME280;5382;42.136;24.796;2023-02-12T08:07:20;100964.09;;;6.33;56.11
10668;BME280;5382;42.136;24.796;2023-02-12T08:09:47;100981.47;;;6.37;56.08
10668;BME280;5382;42.136;24.796;2023-02-12T08:12:14;100967.34;;;6.40;59.88
10668;BME280;5382;42.136;24.796;2023-02-12T08:14:42;100936.84;;;6.12;56.96
10668;BME280;5382;42.136;24.796;2023-02-12T08:17:09;100986.16;;;6.52;59.68
10668;BME280;5382;42.136;24.796;2023-02-12T08:19:36;101000.09;;;6.54;60.36
10668;BME280;5382;42.136;24.796;2023-02-12T08:22:03;101000.91;;;6.57;58.51
10668;BME280;5382;42.136;24.796;2023-02-12T08:24:31;100996.63;;;6.54;57.16
10668;BME280;5382;42.136;24.796;2023-02-12T08:26:58;100999.09;;;6.59;61.28
10668;BME280;5382;42.136;24.796;2023-02-12T08:29:27;100979.06;;;6.54;58.79
10668;BME280;5382;42.136;24.796;2023-02-12T08:31:57;100999.28;;;6.76;58.61
10668;BME280;5382;42.136;24.796;2023-02-12T08:34:26;101016.66;;;6.80;61.05
10668;BME280;5382;42.136;24.796;2023-02-12T08:36:54;101016.53;;;6.83;59.64
10668;BME280;5382;42.136;24.796;2023-02-12T08:39:22;101022.44;;;6.90;64.68
10668;BME280;5382;42.136;24.796;2023-02-12T08:41:50;100985.09;;;6.80;64.23
10668;BME280;5382;42.136;24.796;2023-02-12T08:44:19;100999.66;;;6.89;65.55
10668;BME280;5382;42.136;24.796;2023-02-12T08:46:47;101020.50;;;6.95;66.58
10668;BME280;5382;42.136;24.796;2023-02-12T08:49:18;101033.78;;;6.92;68.59
10668;BME280;5382;42.136;24.796;2023-02-12T08:51:47;101031.22;;;6.89;70.72
10668;BME280;5382;42.136;24.796;2023-02-12T08:54:16;101032.84;;;6.93;73.94
10668;BME280;5382;42.136;24.796;2023-02-12T08:56:44;101045.44;;;6.85;73.99
10668;BME280;5382;42.136;24.796;2023-02-12T08:59:12;101009.97;;;6.48;76.07
10668;BME280;5382;42.136;24.796;2023-02-12T09:01:40;101040.88;;;6.66;78.14
10668;BME280;5382;42.136;24.796;2023-02-12T09:04:11;101034.22;;;6.80;77.54
10668;BME280;5382;42.136;24.796;2023-02-12T09:06:40;101046.13;;;6.90;78.03
10668;BME280;5382;42.136;24.796;2023-02-12T09:09:07;101055.56;;;6.72;79.30
10668;BME280;5382;42.136;24.796;2023-02-12T09:11:34;101053.06;;;6.69;80.63
10668;BME280;5382;42.136;24.796;2023-02-12T09:14:03;101036.78;;;6.58;81.14
10668;BME280;5382;42.136;24.796;2023-02-12T09:16:33;101052.41;;;6.86;84.32
10668;BME280;5382;42.136;24.796;2023-02-12T09:19:00;101062.47;;;6.98;78.49
10668;BME280;5382;42.136;24.796;2023-02-12T09:21:27;101067.19;;;7.12;77.20
10668;BME280;5382;42.136;24.796;2023-02-12T09:23:56;101050.69;;;6.85;76.21
10668;BME280;5382;42.136;24.796;2023-02-12T09:26:24;101049.22;;;6.99;76.49
10668;BME280;5382;42.136;24.796;2023-02-12T09:28:51;101064.44;;;7.15;77.17
10668;BME280;5382;42.136;24.796;2023-02-12T09:31:22;101058.06;;;6.98;78.11
10668;BME280;5382;42.136;24.796;2023-02-12T09:33:51;101059.84;;;6.98;78.87
10668;BME280;5382;42.136;24.796;2023-02-12T09:36:18;101066.19;;;6.92;79.42
10668;BME280;5382;42.136;24.796;2023-02-12T09:38:45;101056.28;;;6.99;79.78
10668;BME280;5382;42.136;24.796;2023-02-12T09:44:21;101058.78;;;7.26;78.65
10668;BME280;5382;42.136;24.796;2023-02-12T09:46:57;101072.53;;;7.32;78.55
10668;BME280;5382;42.136;24.796;2023-02-12T09:49:40;101069.84;;;7.34;78.62
10668;BME280;5382;42.136;24.796;2023-02-12T09:52:13;101049.13;;;7.03;79.18
10668;BME280;5382;42.136;24.796;2023-02-12T09:54:42;101040.31;;;6.82;79.01
10668;BME280;5382;42.136;24.796;2023-02-12T09:57:16;101065.91;;;7.22;78.66
10668;BME280;5382;42.136;24.796;2023-02-12T09:59:47;101051.78;;;7.03;79.07
10668;BME280;5382;42.136;24.796;2023-02-12T10:02:18;101064.81;;;7.06;79.67
10668;BME280;5382;42.136;24.796;2023-02-12T10:04:47;101039.47;;;7.03;79.02
10668;BME280;5382;42.136;24.796;2023-02-12T10:07:24;101057.00;;;7.26;78.39
10668;BME280;5382;42.136;24.796;2023-02-12T10:10:15;101051.41;;;7.56;75.86
10668;BME280;5382;42.136;24.796;2023-02-12T10:12:50;101059.59;;;7.70;74.66
10668;BME280;5382;42.136;24.796;2023-02-12T10:15:43;101058.50;;;7.96;73.57
10668;BME280;5382;42.136;24.796;2023-02-12T10:18:35;101043.41;;;8.20;71.80
10668;BME280;5382;42.136;24.796;2023-02-12T10:21:15;101053.59;;;8.50;68.76
10668;BME280;5382;42.136;24.796;2023-02-12T10:24:05;101044.66;;;8.52;69.89
10668;BME280;5382;42.136;24.796;2023-02-12T10:26:39;101049.97;;;8.71;65.52
10668;BME280;5382;42.136;24.796;2023-02-12T10:29:12;101061.03;;;8.80;61.82
10668;BME280;5382;42.136;24.796;2023-02-12T10:31:43;101041.69;;;8.79;60.89
10668;BME280;5382;42.136;24.796;2023-02-12T10:34:15;101053.84;;;8.83;61.30
10668;BME280;5382;42.136;24.796;2023-02-12T10:36:44;101039.63;;;9.05;60.65
10668;BME280;5382;42.136;24.796;2023-02-12T10:39:19;101035.94;;;9.26;57.85
10668;BME280;5382;42.136;24.796;2023-02-12T10:41:49;101035.69;;;9.50;56.81
10668;BME280;5382;42.136;24.796;2023-02-12T10:44:19;101042.00;;;9.65;55.48
10668;BME280;5382;42.136;24.796;2023-02-12T10:46:46;101044.59;;;9.83;55.25
10668;BME280;5382;42.136;24.796;2023-02-12T10:49:16;101044.34;;;10.05;56.74
10668;BME280;5382;42.136;24.796;2023-02-12T10:52:06;101029.66;;;10.00;54.36
10668;BME280;5382;42.136;24.796;2023-02-12T10:54:39;101030.97;;;10.43;54.93
10668;BME280;5382;42.136;24.796;2023-02-12T10:57:10;101034.19;;;10.33;54.46
10668;BME280;5382;42.136;24.796;2023-02-12T10:59:39;101046.09;;;10.57;55.34
10668;BME280;5382;42.136;24.796;2023-02-12T11:02:19;101039.41;;;10.50;54.66
10668;BME280;5382;42.136;24.796;2023-02-12T11:04:46;101041.00;;;10.86;53.83
10668;BME280;5382;42.136;24.796;2023-02-12T11:07:13;101036.75;;;11.31;52.11
10668;BME280;5382;42.136;24.796;2023-02-12T11:09:43;101033.63;;;11.54;50.66
10668;BME280;5382;42.136;24.796;2023-02-12T11:12:20;101038.53;;;11.46;48.78
10668;BME280;5382;42.136;24.796;2023-02-12T11:14:52;101048.69;;;11.38;48.67
10668;BME280;5382;42.136;24.796;2023-02-12T11:17:24;101053.41;;;11.49;48.35
10668;BME280;5382;42.136;24.796;2023-02-12T11:20:19;101002.13;;;11.34;47.26
10668;BME280;5382;42.136;24.796;2023-02-12T11:22:52;101029.13;;;11.87;46.47
10668;BME280;5382;42.136;24.796;2023-02-12T11:25:20;101059.16;;;11.71;46.55
10668;BME280;5382;42.136;24.796;2023-02-12T11:27:59;101073.59;;;11.51;46.32
10668;BME280;5382;42.136;24.796;2023-02-12T11:30:28;101053.59;;;10.98;47.49
10668;BME280;5382;42.136;24.796;2023-02-12T11:33:13;101037.88;;;10.95;48.09
10668;BME280;5382;42.136;24.796;2023-02-12T11:35:48;101008.88;;;10.76;47.96
10668;BME280;5382;42.136;24.796;2023-02-12T11:38:22;101059.19;;;10.76;48.41
10668;BME280;5382;42.136;24.796;2023-02-12T11:40:50;101065.34;;;10.77;48.63
10668;BME280;5382;42.136;24.796;2023-02-12T11:43:19;101053.88;;;10.76;48.04
10668;BME280;5382;42.136;24.796;2023-02-12T11:45:50;101059.13;;;10.78;48.14
10668;BME280;5382;42.136;24.796;2023-02-12T11:48:23;101048.19;;;10.84;47.91
10668;BME280;5382;42.136;24.796;2023-02-12T11:50:52;101069.28;;;10.85;48.06
10668;BME280;5382;42.136;24.796;2023-02-12T11:53:22;101057.06;;;10.83;48.23
10668;BME280;5382;42.136;24.796;2023-02-12T11:55:56;101053.34;;;10.87;47.81
10668;BME280;5382;42.136;24.796;2023-02-12T11:58:25;101050.59;;;11.04;47.30
10668;BME280;5382;42.136;24.796;2023-02-12T12:01:02;101058.44;;;10.90;47.45
10668;BME280;5382;42.136;24.796;2023-02-12T12:03:34;101052.97;;;10.93;47.29
10668;BME280;5382;42.136;24.796;2023-02-12T12:06:06;101044.25;;;11.23;46.84
10668;BME280;5382;42.136;24.796;2023-02-12T12:08:38;101045.28;;;11.52;46.03
10668;BME280;5382;42.136;24.796;2023-02-12T12:11:10;101060.75;;;12.06;44.82
10668;BME280;5382;42.136;24.796;2023-02-12T12:13:44;101042.59;;;12.42;43.96
10668;BME280;5382;42.136;24.796;2023-02-12T12:16:18;101044.06;;;12.90;43.02
10668;BME280;5382;42.136;24.796;2023-02-12T12:19:10;101031.56;;;13.60;42.06
10668;BME280;5382;42.136;24.796;2023-02-12T12:22:03;101032.94;;;14.44;40.44
10668;BME280;5382;42.136;24.796;2023-02-12T12:24:37;101058.50;;;14.85;38.96
10668;BME280;5382;42.136;24.796;2023-02-12T12:27:11;101058.50;;;14.85;38.94
10668;BME280;5382;42.136;24.796;2023-02-12T12:30:03;101052.47;;;14.70;39.05
10668;BME280;5382;42.136;24.796;2023-02-12T12:32:36;101045.72;;;13.61;40.06
10668;BME280;5382;42.136;24.796;2023-02-12T12:35:08;101069.88;;;12.87;41.00
10668;BME280;5382;42.136;24.796;2023-02-12T12:37:41;101076.94;;;12.60;42.01
10668;BME280;5382;42.136;24.796;2023-02-12T12:40:35;101077.72;;;12.17;42.67
10668;BME280;5382;42.136;24.796;2023-02-12T12:43:12;101065.59;;;11.67;44.21
10668;BME280;5382;42.136;24.796;2023-02-12T12:46:14;101075.28;;;11.37;45.30
10668;BME280;5382;42.136;24.796;2023-02-12T12:48:57;101082.47;;;11.19;45.76
10668;BME280;5382;42.136;24.796;2023-02-12T12:51:38;101091.25;;;11.03;46.22
10668;BME280;5382;42.136;24.796;2023-02-12T12:54:23;101079.34;;;10.79;47.03
10668;BME280;5382;42.136;24.796;2023-02-12T12:57:03;101065.00;;;10.67;47.43
10668;BME280;5382;42.136;24.796;2023-02-12T12:59:57;101093.97;;;10.86;47.05
10668;BME280;5382;42.136;24.796;2023-02-12T13:02:57;101106.69;;;10.79;48.07
10668;BME280;5382;42.136;24.796;2023-02-12T13:08:58;101111.28;;;10.76;47.77
10668;BME280;5382;42.136;24.796;2023-02-12T13:11:37;101116.34;;;10.80;47.94
10668;BME280;5382;42.136;24.796;2023-02-12T13:14:16;101108.53;;;10.61;48.69
10668;BME280;5382;42.136;24.796;2023-02-12T13:16:52;101105.22;;;10.40;48.65
10668;BME280;5382;42.136;24.796;2023-02-12T13:19:30;101100.44;;;10.30;49.82
10668;BME280;5382;42.136;24.796;2023-02-12T13:22:04;101095.63;;;10.20;50.32
10668;BME280;5382;42.136;24.796;2023-02-12T13:24:38;101109.75;;;10.19;50.57
10668;BME280;5382;42.136;24.796;2023-02-12T13:27:13;101118.47;;;10.21;50.72